Time;durP1;ratioP1;P1;durP2;ratioP2;P2;SDS_P1;SDS_P2;PMS_P1;PMS_P2;Temp;Humidity;BMP_temperature;BMP_pressure;BME280_temperature;BME280_humidity;BME280_pressure;Samples;Min_cycle;Max_cycle;Signal;HPM_P1;HPM_P2
2021/10/27 00:02:01;;;;;;;30.40;7.80;;;14.90;99.90;;;;;;5050623;28;20213;-86
2021/10/27 00:04:28;;;;;;;30.43;7.20;;;14.80;99.90;;;;;;5049562;28;20214;-86
2021/10/27 00:06:54;;;;;;;30.77;7.53;;;14.90;99.90;;;;;;5048900;28;20197;-85
2021/10/27 00:09:21;;;;;;;26.48;7.20;;;14.90;99.90;;;;;;5049287;28;20205;-87
2021/10/27 00:11:48;;;;;;;25.13;7.40;;;14.90;99.90;;;;;;5050490;28;20194;-88
2021/10/27 00:14:16;;;;;;;26.30;6.50;;;14.90;99.90;;;;;;5063647;28;20949;-84
2021/10/27 00:16:43;;;;;;;26.03;6.37;;;14.90;99.90;;;;;;5069708;28;20584;-87
2021/10/27 00:19:10;;;;;;;26.70;7.10;;;14.90;99.90;;;;;;5070718;28;20197;-84
2021/10/27 00:21:37;;;;;;;35.03;6.30;;;14.90;99.90;;;;;;5053489;28;20846;-85
2021/10/27 00:24:04;;;;;;;30.83;6.32;;;14.90;99.90;;;;;;5048201;28;20205;-87
2021/10/27 00:26:31;;;;;;;22.25;5.22;;;14.80;99.90;;;;;;5069025;28;20201;-86
2021/10/27 00:28:58;;;;;;;27.58;5.38;;;14.90;99.90;;;;;;5069067;28;20205;-86
2021/10/27 00:31:26;;;;;;;23.40;6.23;;;14.90;99.90;;;;;;5069427;28;20212;-86
2021/10/27 00:33:53;;;;;;;31.65;6.20;;;14.90;99.90;;;;;;5052732;28;20212;-87
2021/10/27 00:36:19;;;;;;;25.30;6.28;;;14.90;99.90;;;;;;5049980;28;20218;-88
2021/10/27 00:38:46;;;;;;;26.87;6.73;;;14.90;99.90;;;;;;5050398;28;20240;-85
2021/10/27 00:41:13;;;;;;;32.13;5.90;;;14.90;99.90;;;;;;5069109;28;20259;-88
2021/10/27 00:43:40;;;;;;;27.25;6.40;;;14.90;99.90;;;;;;5071179;28;20209;-86
2021/10/27 00:46:18;;;;;;;30.07;6.10;;;14.90;99.90;;;;;;5071273;28;20201;-86
2021/10/27 00:48:46;;;;;;;29.75;6.90;;;14.90;99.90;;;;;;5051294;28;20198;-88
2021/10/27 00:51:14;;;;;;;28.23;6.80;;;14.90;99.90;;;;;;5051213;28;20186;-88
2021/10/27 00:53:42;;;;;;;24.00;8.95;;;14.80;99.90;;;;;;5051288;28;20244;-88
2021/10/27 00:56:09;;;;;;;27.98;10.50;;;14.80;99.90;;;;;;5050630;28;20245;-87
2021/10/27 00:58:37;;;;;;;29.45;12.88;;;14.80;99.90;;;;;;5051104;28;20300;-86
2021/10/27 01:01:04;;;;;;;26.30;11.10;;;14.80;99.90;;;;;;5050823;28;20198;-87
2021/10/27 01:03:32;;;;;;;25.77;9.07;;;14.90;99.90;;;;;;5050808;28;20206;-86
2021/10/27 01:06:00;;;;;;;31.87;8.93;;;14.90;99.90;;;;;;5051240;28;20268;-88
2021/10/27 01:08:27;;;;;;;29.13;6.85;;;14.90;99.90;;;;;;5051747;28;20758;-87
2021/10/27 01:10:55;;;;;;;28.63;6.28;;;14.90;99.90;;;;;;5050996;28;20206;-88
2021/10/27 01:13:22;;;;;;;25.10;6.68;;;14.90;99.90;;;;;;5050416;28;20209;-90
2021/10/27 01:15:49;;;;;;;18.45;5.53;;;14.90;99.90;;;;;;5056033;28;20237;-87
2021/10/27 01:18:15;;;;;;;25.85;6.72;;;14.90;99.90;;;;;;5070469;28;20229;-85
2021/10/27 01:20:44;;;;;;;38.38;8.88;;;14.80;99.90;;;;;;5070271;28;20194;-87
2021/10/27 01:23:11;;;;;;;29.52;7.20;;;14.80;99.90;;;;;;5069737;28;20208;-88
2021/10/27 01:25:37;;;;;;;29.70;7.90;;;14.90;99.90;;;;;;5052404;28;20317;-87
2021/10/27 01:28:04;;;;;;;24.98;7.07;;;14.80;99.90;;;;;;5054462;28;20194;-88
2021/10/27 01:30:31;;;;;;;33.73;8.37;;;14.80;99.90;;;;;;5054181;28;20198;-88
2021/10/27 01:32:58;;;;;;;27.45;7.53;;;14.80;99.90;;;;;;5057433;28;20194;-90
2021/10/27 01:35:25;;;;;;;29.00;8.27;;;14.80;99.90;;;;;;5057335;28;20229;-87
2021/10/27 01:37:54;;;;;;;35.90;9.70;;;14.80;99.90;;;;;;5056262;28;20229;-86
2021/10/27 01:40:23;;;;;;;41.20;11.23;;;14.80;99.90;;;;;;5052514;28;20301;-85
2021/10/27 01:42:52;;;;;;;31.70;11.87;;;14.80;99.90;;;;;;5051478;28;20297;-89
2021/10/27 01:45:19;;;;;;;39.78;13.98;;;14.80;99.90;;;;;;5053054;28;20206;-89
2021/10/27 01:47:47;;;;;;;33.38;10.73;;;14.90;99.90;;;;;;5053900;28;20211;-88
2021/10/27 01:50:16;;;;;;;33.17;11.82;;;14.90;99.90;;;;;;5054452;28;20260;-87
2021/10/27 01:52:43;;;;;;;30.90;14.75;;;14.80;99.90;;;;;;5053884;28;20563;-87
2021/10/27 01:55:12;;;;;;;40.93;16.37;;;14.80;99.90;;;;;;5053051;28;20202;-88
2021/10/27 01:57:39;;;;;;;32.97;15.68;;;14.80;99.90;;;;;;5051245;28;20319;-88
2021/10/27 02:00:08;;;;;;;31.98;12.98;;;14.80;99.90;;;;;;5050908;28;20209;-87
2021/10/27 02:02:35;;;;;;;41.72;9.75;;;14.80;99.90;;;;;;5050840;28;20221;-87
2021/10/27 02:05:02;;;;;;;37.50;8.50;;;14.80;99.90;;;;;;5052353;28;20217;-88
2021/10/27 02:07:29;;;;;;;33.70;8.85;;;14.80;99.90;;;;;;5053550;28;20290;-86
2021/10/27 02:09:56;;;;;;;28.70;7.00;;;14.80;99.90;;;;;;5054059;28;20202;-87
2021/10/27 02:12:24;;;;;;;27.00;6.63;;;14.80;99.90;;;;;;5053503;28;20628;-86
2021/10/27 02:14:51;;;;;;;30.23;6.80;;;14.80;99.90;;;;;;5054089;28;20275;-87
2021/10/27 02:17:18;;;;;;;23.23;6.60;;;14.80;99.90;;;;;;5054183;28;20226;-88
2021/10/27 02:19:44;;;;;;;31.17;7.30;;;14.80;99.90;;;;;;5053320;28;20214;-89
2021/10/27 02:22:11;;;;;;;33.97;7.43;;;14.80;99.90;;;;;;5053424;28;20202;-87
2021/10/27 02:24:38;;;;;;;32.60;6.47;;;14.80;99.90;;;;;;5057400;28;20212;-86
2021/10/27 02:27:08;;;;;;;29.00;5.93;;;14.80;99.90;;;;;;5066688;28;20251;-85
2021/10/27 02:29:37;;;;;;;34.87;6.57;;;14.80;99.90;;;;;;5052922;28;20209;-88
2021/10/27 02:32:05;;;;;;;30.35;6.78;;;14.80;99.90;;;;;;5053315;28;20201;-88
2021/10/27 02:34:32;;;;;;;32.30;6.47;;;14.80;99.90;;;;;;5067757;28;20216;-86
2021/10/27 02:36:59;;;;;;;31.98;6.78;;;14.80;99.90;;;;;;5072692;28;20223;-87
2021/10/27 02:39:27;;;;;;;31.13;6.67;;;14.80;99.90;;;;;;5069891;28;20247;-86
2021/10/27 02:41:53;;;;;;;25.20;5.23;;;14.80;99.90;;;;;;5052533;28;20210;-88
2021/10/27 02:44:21;;;;;;;32.70;7.82;;;14.70;99.90;;;;;;5052303;28;20205;-88
2021/10/27 02:46:50;;;;;;;38.10;7.50;;;14.70;99.90;;;;;;5052552;28;20206;-87
2021/10/27 02:49:17;;;;;;;43.35;8.15;;;14.70;99.90;;;;;;5052041;28;20284;-84
2021/10/27 02:51:44;;;;;;;30.47;8.03;;;14.80;99.90;;;;;;5051878;28;20241;-87
2021/10/27 02:54:11;;;;;;;32.20;8.33;;;14.70;99.90;;;;;;5052234;28;20201;-87
2021/10/27 02:56:38;;;;;;;28.60;7.45;;;14.70;99.90;;;;;;5051991;28;20246;-86
2021/10/27 02:59:04;;;;;;;37.53;8.27;;;14.70;99.90;;;;;;5050000;28;20197;-86
2021/10/27 03:01:31;;;;;;;31.48;8.60;;;14.70;99.90;;;;;;5062629;28;20216;-86
2021/10/27 03:04:00;;;;;;;31.40;10.10;;;14.70;99.90;;;;;;5070183;28;20197;-83
2021/10/27 03:06:27;;;;;;;30.15;10.02;;;14.80;99.90;;;;;;5070635;28;20209;-83
2021/10/27 03:08:54;;;;;;;28.00;7.95;;;14.70;99.90;;;;;;5061337;28;20213;-84
2021/10/27 03:11:21;;;;;;;32.75;9.05;;;14.80;99.90;;;;;;5051649;28;20209;-86
2021/10/27 03:13:48;;;;;;;24.93;7.67;;;14.80;99.90;;;;;;5057568;28;20615;-86
2021/10/27 03:16:15;;;;;;;31.77;8.90;;;14.80;99.90;;;;;;5071140;28;20193;-88
2021/10/27 03:18:42;;;;;;;31.83;11.57;;;14.80;99.90;;;;;;5070714;28;20587;-86
2021/10/27 03:21:10;;;;;;;28.58;11.25;;;14.80;99.90;;;;;;5051893;28;20218;-85
2021/10/27 03:23:37;;;;;;;32.47;13.30;;;14.80;99.90;;;;;;5057954;28;20486;-87
2021/10/27 03:26:03;;;;;;;34.17;14.18;;;14.80;99.90;;;;;;5075209;28;20200;-89
2021/10/27 03:28:30;;;;;;;31.52;9.77;;;14.80;99.90;;;;;;5075059;28;20230;-87
2021/10/27 03:30:58;;;;;;;29.75;7.90;;;14.80;99.90;;;;;;5059842;28;20512;-85
2021/10/27 03:33:25;;;;;;;36.90;6.93;;;14.80;99.90;;;;;;5054613;28;20197;-88
2021/10/27 03:35:51;;;;;;;33.15;7.63;;;14.80;99.90;;;;;;5074648;28;20204;-86
2021/10/27 03:38:20;;;;;;;25.40;6.53;;;14.70;99.90;;;;;;5073706;28;20229;-87
2021/10/27 03:40:47;;;;;;;26.25;7.05;;;14.80;99.90;;;;;;5074914;28;20193;-86
2021/10/27 03:43:14;;;;;;;31.17;9.05;;;14.70;99.90;;;;;;5075023;28;20204;-87
2021/10/27 03:45:41;;;;;;;25.92;10.13;;;14.80;99.90;;;;;;5074567;28;20284;-86
2021/10/27 03:48:08;;;;;;;25.17;9.40;;;14.80;99.90;;;;;;5074028;28;20197;-86
2021/10/27 03:50:35;;;;;;;24.67;7.90;;;14.70;99.90;;;;;;5074179;28;20206;-87
2021/10/27 03:53:02;;;;;;;26.90;8.07;;;14.70;99.90;;;;;;5069351;28;20255;-86
2021/10/27 03:55:30;;;;;;;27.83;8.02;;;14.70;99.90;;;;;;5054184;28;20493;-86
2021/10/27 03:57:58;;;;;;;25.80;8.23;;;14.70;99.90;;;;;;5072810;28;20229;-86
2021/10/27 04:00:26;;;;;;;24.50;6.18;;;14.70;99.90;;;;;;5072312;28;20741;-89
2021/10/27 04:02:53;;;;;;;31.08;6.53;;;14.70;99.90;;;;;;5073107;28;20197;-87
2021/10/27 04:05:20;;;;;;;33.55;6.47;;;14.70;99.90;;;;;;5059571;28;20209;-87
2021/10/27 04:07:47;;;;;;;24.50;6.70;;;14.70;99.90;;;;;;5052912;28;20197;-85
2021/10/27 04:10:15;;;;;;;20.38;5.30;;;14.70;99.90;;;;;;5063258;28;20241;-84
2021/10/27 04:12:43;;;;;;;22.02;5.57;;;14.70;99.90;;;;;;5064098;28;20252;-86
2021/10/27 04:15:12;;;;;;;18.50;5.50;;;14.70;99.90;;;;;;5061400;28;20229;-87
2021/10/27 04:17:39;;;;;;;28.58;6.63;;;14.70;99.90;;;;;;5058426;28;20234;-88
2021/10/27 04:20:09;;;;;;;28.42;5.82;;;14.70;99.90;;;;;;5063831;28;20213;-87
2021/10/27 04:22:38;;;;;;;26.95;6.00;;;14.70;99.90;;;;;;5070961;28;20197;-84
2021/10/27 04:25:07;;;;;;;29.20;7.17;;;14.60;99.90;;;;;;5071569;28;20299;-89
2021/10/27 04:27:34;;;;;;;21.00;6.55;;;14.70;99.90;;;;;;5071175;28;20890;-89
2021/10/27 04:30:03;;;;;;;24.83;6.85;;;14.70;99.90;;;;;;5051456;28;20292;-88
2021/10/27 04:32:30;;;;;;;27.73;7.20;;;14.70;99.90;;;;;;5050052;28;20410;-88
2021/10/27 04:34:57;;;;;;;30.52;8.32;;;14.70;99.90;;;;;;5051165;28;20264;-88
2021/10/27 04:37:26;;;;;;;31.30;7.55;;;14.70;99.90;;;;;;5059851;28;20204;-88
2021/10/27 04:39:53;;;;;;;25.10;7.40;;;14.70;99.90;;;;;;5070896;28;20783;-85
2021/10/27 04:42:20;;;;;;;22.60;7.83;;;14.70;99.90;;;;;;5070572;28;20228;-90
2021/10/27 04:44:47;;;;;;;27.52;8.73;;;14.70;99.90;;;;;;5070548;28;20508;-85
2021/10/27 04:47:15;;;;;;;27.92;8.35;;;14.70;99.90;;;;;;5070542;28;20221;-86
2021/10/27 04:49:42;;;;;;;21.25;8.35;;;14.70;99.90;;;;;;5070218;28;20228;-85
2021/10/27 04:52:09;;;;;;;30.65;8.70;;;14.70;99.90;;;;;;5055257;28;20210;-87
2021/10/27 04:54:36;;;;;;;30.98;8.13;;;14.70;99.90;;;;;;5050886;28;20272;-84
2021/10/27 04:57:03;;;;;;;24.60;7.45;;;14.70;99.90;;;;;;5050065;28;20396;-87
2021/10/27 04:59:36;;;;;;;23.77;7.68;;;14.70;99.90;;;;;;5052110;28;20229;-86
2021/10/27 05:02:04;;;;;;;26.07;7.87;;;14.70;99.90;;;;;;5054745;28;20272;-87
2021/10/27 05:04:32;;;;;;;20.30;7.23;;;14.60;99.90;;;;;;5054586;28;20260;-86
2021/10/27 05:06:59;;;;;;;25.90;6.88;;;14.70;99.90;;;;;;5052716;28;20190;-85
2021/10/27 05:09:27;;;;;;;17.52;5.93;;;14.60;99.90;;;;;;5053199;28;20206;-84
2021/10/27 05:11:55;;;;;;;20.67;6.70;;;14.70;99.90;;;;;;5055379;28;20198;-85
2021/10/27 05:14:22;;;;;;;24.45;6.90;;;14.70;99.90;;;;;;5064029;28;20233;-87
2021/10/27 05:16:49;;;;;;;21.42;6.40;;;14.70;99.90;;;;;;5074813;28;20219;-87
2021/10/27 05:19:15;;;;;;;22.05;6.55;;;14.70;99.90;;;;;;5074026;28;20301;-86
2021/10/27 05:21:44;;;;;;;25.23;6.93;;;14.60;99.90;;;;;;5074752;28;20198;-86
2021/10/27 05:24:11;;;;;;;26.90;7.93;;;14.60;99.90;;;;;;5074221;28;20615;-86
2021/10/27 05:26:37;;;;;;;26.35;6.45;;;14.60;99.90;;;;;;5073399;28;20205;-87
2021/10/27 05:29:04;;;;;;;23.27;7.70;;;14.60;99.90;;;;;;5054343;28;20201;-86
2021/10/27 05:31:31;;;;;;;26.73;5.77;;;14.60;99.90;;;;;;5053353;28;20205;-87
2021/10/27 05:33:58;;;;;;;26.38;7.18;;;14.60;99.90;;;;;;5053154;28;20218;-87
2021/10/27 05:36:25;;;;;;;24.50;6.47;;;14.60;99.90;;;;;;5051195;28;20294;-87
2021/10/27 05:38:53;;;;;;;17.97;5.83;;;14.60;99.90;;;;;;5066983;28;20256;-87
2021/10/27 05:41:21;;;;;;;25.77;7.30;;;14.60;99.90;;;;;;5074238;28;20201;-85
2021/10/27 05:43:48;;;;;;;30.10;7.37;;;14.60;99.90;;;;;;5073312;28;20197;-85
2021/10/27 05:46:18;;;;;;;23.23;6.80;;;14.60;99.90;;;;;;5073173;28;20289;-84
2021/10/27 05:48:47;;;;;;;18.70;6.75;;;14.70;99.90;;;;;;5073581;28;20232;-85
2021/10/27 05:51:19;;;;;;;23.37;6.93;;;14.60;99.90;;;;;;5072193;28;20205;-84
2021/10/27 05:56:33;;;;;;;24.13;6.83;;;14.60;99.90;;;;;;5053666;28;20236;-85
2021/10/27 05:59:00;;;;;;;25.83;7.15;;;14.60;99.90;;;;;;5053826;28;20725;-87
2021/10/27 06:01:26;;;;;;;22.83;6.35;;;14.60;99.90;;;;;;5053439;28;20194;-82
2021/10/27 06:03:53;;;;;;;20.13;6.13;;;14.60;99.90;;;;;;5055214;28;20194;-86
2021/10/27 06:06:20;;;;;;;21.55;6.10;;;14.60;99.90;;;;;;5073343;28;20201;-83
2021/10/27 06:08:47;;;;;;;19.65;6.10;;;14.60;99.90;;;;;;5073622;28;20212;-85
2021/10/27 06:11:14;;;;;;;22.37;5.80;;;14.60;99.90;;;;;;5072006;28;20597;-87
2021/10/27 06:13:46;;;;;;;17.92;6.22;;;14.60;99.90;;;;;;5072848;28;20225;-83
2021/10/27 06:16:13;;;;;;;27.48;6.57;;;14.70;99.90;;;;;;5073583;28;20867;-85
2021/10/27 06:18:40;;;;;;;20.45;6.40;;;14.60;99.90;;;;;;5072818;28;20217;-83
2021/10/27 06:21:08;;;;;;;17.42;6.22;;;14.70;99.90;;;;;;5072953;28;20235;-83
2021/10/27 06:23:35;;;;;;;20.00;6.30;;;14.70;99.90;;;;;;5070263;28;20212;-89
2021/10/27 06:26:03;;;;;;;24.30;6.07;;;14.70;99.90;;;;;;5072997;28;20201;-87
2021/10/27 06:28:32;;;;;;;19.37;6.10;;;14.60;99.90;;;;;;5065778;28;20236;-87
2021/10/27 06:31:07;;;;;;;14.63;6.18;;;14.60;99.90;;;;;;5053170;28;20213;-86
2021/10/27 06:33:56;;;;;;;20.60;6.13;;;14.70;99.90;;;;;;5069236;28;20265;-86
2021/10/27 06:36:27;;;;;;;26.92;6.45;;;14.70;99.90;;;;;;5066887;28;20193;-92
2021/10/27 06:47:10;;;;;;;21.47;6.47;;;14.70;99.90;;;;;;5053462;28;20240;-85
2021/10/27 06:49:37;;;;;;;24.73;5.87;;;14.60;99.90;;;;;;5052961;28;20208;-88
2021/10/27 06:52:04;;;;;;;18.67;6.30;;;14.60;99.90;;;;;;5053212;28;20198;-88
2021/10/27 06:54:31;;;;;;;24.40;6.33;;;14.60;99.90;;;;;;5051849;28;20210;-81
2021/10/27 06:56:58;;;;;;;20.30;5.72;;;14.60;99.90;;;;;;5050658;28;20238;-85
2021/10/27 06:59:31;;;;;;;17.87;6.07;;;14.70;99.90;;;;;;5051241;28;20311;-85
2021/10/27 07:02:30;;;;;;;22.60;5.43;;;14.60;99.90;;;;;;5051919;28;20198;-87
2021/10/27 07:05:13;;;;;;;17.10;5.23;;;14.70;99.90;;;;;;5035368;28;20217;-87
2021/10/27 07:16:13;;;;;;;13.45;5.30;;;14.70;99.90;;;;;;5065132;28;20867;-88
2021/10/27 07:18:40;;;;;;;18.30;6.72;;;14.70;99.90;;;;;;5062547;28;20507;-86
2021/10/27 07:21:15;;;;;;;18.27;5.43;;;14.70;99.90;;;;;;5068161;28;20212;-88
2021/10/27 07:23:47;;;;;;;24.23;6.22;;;14.70;99.90;;;;;;5071307;28;20201;-90
2021/10/27 07:26:17;;;;;;;22.33;6.57;;;14.80;99.90;;;;;;5072337;28;20203;-91
2021/10/27 07:28:47;;;;;;;15.30;5.50;;;14.80;99.90;;;;;;5062292;28;20664;-88
2021/10/27 07:31:15;;;;;;;22.57;6.20;;;14.80;99.90;;;;;;5054123;28;20210;-88
2021/10/27 07:33:43;;;;;;;16.67;5.40;;;14.90;99.90;;;;;;5054966;28;20232;-84
2021/10/27 07:36:24;;;;;;;19.07;4.67;;;14.90;99.90;;;;;;5051427;28;20206;-82
2021/10/27 07:41:37;;;;;;;16.13;5.03;;;14.90;99.90;;;;;;5051019;28;20287;-89
2021/10/27 07:44:14;;;;;;;14.63;4.77;;;14.90;99.90;;;;;;5050959;28;20216;-82
2021/10/27 07:46:41;;;;;;;21.07;5.83;;;15.00;99.90;;;;;;5051521;28;20216;-87
2021/10/27 07:49:08;;;;;;;19.00;6.80;;;15.00;99.90;;;;;;5051409;28;20206;-89
2021/10/27 07:51:35;;;;;;;15.53;6.33;;;15.00;99.90;;;;;;5051971;28;20190;-90
2021/10/27 07:54:04;;;;;;;16.63;6.23;;;15.10;99.90;;;;;;5062865;28;20558;-87
2021/10/27 07:56:32;;;;;;;14.37;5.70;;;15.10;99.90;;;;;;5071947;28;20243;-90
2021/10/27 07:59:00;;;;;;;20.73;6.53;;;15.10;99.90;;;;;;5058287;28;20229;-89
2021/10/27 08:01:27;;;;;;;16.40;5.17;;;15.10;99.90;;;;;;5050906;28;20577;-86
2021/10/27 08:03:54;;;;;;;17.60;5.80;;;15.10;99.90;;;;;;5051452;28;20217;-89
2021/10/27 08:06:21;;;;;;;16.50;5.40;;;15.10;99.90;;;;;;5051558;28;20194;-94
2021/10/27 08:08:49;;;;;;;20.37;5.30;;;15.10;99.90;;;;;;5051739;28;20205;-91
2021/10/27 08:11:18;;;;;;;15.50;5.25;;;15.10;99.90;;;;;;5047861;28;20206;-92
2021/10/27 08:13:45;;;;;;;15.37;4.80;;;15.10;99.90;;;;;;5048389;28;20821;-95
2021/10/27 08:16:11;;;;;;;16.17;5.30;;;15.10;99.90;;;;;;5049464;28;20198;-92
2021/10/27 08:18:38;;;;;;;13.03;4.27;;;15.10;99.90;;;;;;5079714;23;20247;-88
2021/10/27 08:21:06;;;;;;;9.53;4.60;;;15.10;99.90;;;;;;5088482;28;20196;-88
2021/10/27 08:23:38;;;;;;;13.27;4.70;;;15.10;99.90;;;;;;5090444;28;20200;-93
2021/10/27 08:26:08;;;;;;;12.53;5.07;;;15.10;99.90;;;;;;5073479;28;20205;-94
2021/10/27 08:28:40;;;;;;;12.37;5.10;;;15.10;99.90;;;;;;5071409;28;20201;-94
2021/10/27 08:31:14;;;;;;;13.57;5.17;;;15.20;99.90;;;;;;5075024;28;20204;-86
2021/10/27 08:34:01;;;;;;;13.43;4.63;;;15.10;99.90;;;;;;5094215;28;20208;-90
2021/10/27 08:36:28;;;;;;;11.50;3.97;;;15.10;99.90;;;;;;5094440;28;20597;-90
2021/10/27 08:38:55;;;;;;;10.70;3.93;;;15.10;99.90;;;;;;5078593;28;20221;-93
2021/10/27 08:41:22;;;;;;;13.40;4.57;;;15.20;99.90;;;;;;5078469;28;20298;-90
2021/10/27 08:43:50;;;;;;;10.30;4.33;;;15.20;99.90;;;;;;5079733;28;20419;-91
2021/10/27 08:46:19;;;;;;;13.03;4.77;;;15.20;99.90;;;;;;5098152;28;20258;-81
2021/10/27 08:48:51;;;;;;;16.43;4.50;;;15.20;99.90;;;;;;5096926;28;20661;-90
2021/10/27 08:51:19;;;;;;;11.88;3.58;;;15.20;99.90;;;;;;5097956;28;20614;-84
2021/10/27 08:53:46;;;;;;;9.20;3.30;;;15.20;99.90;;;;;;5097997;28;20291;-88
2021/10/27 08:56:13;;;;;;;16.77;3.60;;;15.20;99.90;;;;;;5098230;28;20205;-87
2021/10/27 08:58:43;;;;;;;16.20;3.50;;;15.20;99.90;;;;;;5081435;28;20492;-86
2021/10/27 09:01:19;;;;;;;14.53;3.80;;;15.30;99.90;;;;;;5079747;28;20253;-84
2021/10/27 09:04:10;;;;;;;15.17;4.60;;;15.30;99.90;;;;;;5097885;28;20245;-84
2021/10/27 09:06:41;;;;;;;10.50;3.63;;;15.30;99.90;;;;;;5081920;28;20205;-85
2021/10/27 09:35:03;;;;;;;15.73;4.27;;;15.40;99.90;;;;;;5021029;28;20195;-84
2021/10/27 09:37:44;;;;;;;16.07;3.60;;;15.40;99.90;;;;;;5032288;28;20210;-84
2021/10/27 09:46:22;;;;;;;10.90;3.20;;;15.60;99.90;;;;;;5032543;27;20625;-87
2021/10/27 10:05:27;;;;;;;11.02;3.25;;;15.70;99.90;;;;;;5006885;28;20366;-84
2021/10/27 10:07:56;;;;;;;16.40;4.10;;;15.70;99.90;;;;;;5077953;28;20215;-84
2021/10/27 10:10:23;;;;;;;9.23;3.40;;;15.70;99.90;;;;;;5064207;28;20243;-84
2021/10/27 10:12:52;;;;;;;13.30;3.63;;;15.70;99.90;;;;;;5087096;27;20653;-82
2021/10/27 10:15:24;;;;;;;12.68;3.13;;;15.70;99.90;;;;;;5056520;27;20243;-84
2021/10/27 10:17:55;;;;;;;11.07;3.50;;;15.70;99.90;;;;;;5046248;28;20222;-84
2021/10/27 10:20:23;;;;;;;13.30;3.20;;;15.70;99.90;;;;;;5024204;28;20484;-83
2021/10/27 10:22:50;;;;;;;11.10;3.00;;;15.70;99.90;;;;;;5029319;28;20209;-81
2021/10/27 10:25:32;;;;;;;10.03;3.43;;;15.80;99.90;;;;;;5038970;28;20219;-83
2021/10/27 10:28:16;;;;;;;10.32;3.58;;;15.80;99.90;;;;;;5047661;28;20214;-81
2021/10/27 10:30:49;;;;;;;14.43;3.57;;;15.80;99.90;;;;;;5103580;28;20238;-82
2021/10/27 10:33:18;;;;;;;10.97;3.73;;;15.80;99.90;;;;;;5050631;28;20239;-83
2021/10/27 10:35:58;;;;;;;11.67;3.77;;;15.80;99.90;;;;;;5064177;28;20217;-82
2021/10/27 10:38:34;;;;;;;11.32;3.17;;;15.80;99.90;;;;;;5044063;28;20204;-81
2021/10/27 10:41:16;;;;;;;12.93;3.67;;;15.80;99.90;;;;;;5044926;28;20306;-80
2021/10/27 10:59:27;;;;;;;8.20;2.70;;;15.90;99.90;;;;;;5077765;28;20219;-81
2021/10/27 11:02:33;;;;;;;9.52;2.80;;;15.90;99.90;;;;;;5020925;28;20207;-83
2021/10/27 11:24:36;;;;;;;7.43;2.70;;;15.90;99.90;;;;;;5018536;28;20667;-80
2021/10/27 11:38:22;;;;;;;11.87;2.47;;;16.00;99.90;;;;;;5051351;28;20692;-83
2021/10/27 11:40:54;;;;;;;7.30;3.10;;;16.00;99.90;;;;;;5087266;28;20290;-84
2021/10/27 11:43:29;;;;;;;7.13;2.83;;;16.00;99.90;;;;;;5066192;28;20200;-83
2021/10/27 11:45:58;;;;;;;12.93;2.90;;;16.00;99.90;;;;;;5058317;28;20663;-80
2021/10/27 11:48:34;;;;;;;11.27;3.20;;;16.00;99.90;;;;;;5105201;28;20550;-80
2021/10/27 11:51:08;;;;;;;7.37;2.63;;;15.90;99.90;;;;;;5043821;28;20218;-82
2021/10/27 11:53:37;;;;;;;9.90;3.10;;;16.00;99.90;;;;;;5003309;28;20264;-80
2021/10/27 11:56:12;;;;;;;11.57;3.27;;;16.00;99.90;;;;;;4996987;28;20216;-80
2021/10/27 11:58:41;;;;;;;11.57;3.40;;;16.00;99.90;;;;;;4984400;28;20234;-81
2021/10/27 12:01:13;;;;;;;15.27;3.20;;;16.00;99.90;;;;;;4985208;28;20200;-79
2021/10/27 12:03:43;;;;;;;6.97;3.37;;;16.00;99.90;;;;;;4983666;28;20203;-80
2021/10/27 12:06:28;;;;;;;13.27;3.30;;;16.00;99.90;;;;;;4984407;28;20637;-80
2021/10/27 12:12:08;;;;;;;14.17;3.37;;;16.00;99.90;;;;;;4947820;28;20231;-80
2021/10/27 12:14:55;;;;;;;11.13;3.20;;;16.00;99.90;;;;;;4983541;28;20690;-81
2021/10/27 12:17:33;;;;;;;13.90;3.93;;;16.00;99.90;;;;;;4983614;28;20352;-79
2021/10/27 12:20:00;;;;;;;7.15;2.90;;;16.00;99.90;;;;;;4984052;28;20208;-78
2021/10/27 12:22:28;;;;;;;9.15;3.13;;;16.00;99.90;;;;;;4984203;28;20203;-80
2021/10/27 12:25:00;;;;;;;12.30;3.25;;;16.00;99.90;;;;;;4990758;28;20321;-80
2021/10/27 12:27:31;;;;;;;7.77;2.97;;;16.00;99.90;;;;;;4991873;28;20273;-80
2021/10/27 12:30:00;;;;;;;9.15;3.13;;;16.00;99.90;;;;;;5003345;28;20622;-80
2021/10/27 12:32:29;;;;;;;7.13;2.78;;;16.00;99.90;;;;;;5003052;28;20227;-79
2021/10/27 12:34:59;;;;;;;11.57;2.75;;;16.00;99.90;;;;;;4995894;28;20203;-81
2021/10/27 12:37:34;;;;;;;12.07;3.47;;;16.10;99.90;;;;;;4984289;28;20215;-81
2021/10/27 12:40:11;;;;;;;9.13;3.15;;;16.00;99.90;;;;;;4984104;28;20215;-80
2021/10/27 12:42:38;;;;;;;6.30;2.80;;;16.00;99.90;;;;;;4984255;28;20525;-81
2021/10/27 12:45:07;;;;;;;6.97;2.87;;;16.10;99.90;;;;;;4983457;28;20203;-79
2021/10/27 12:47:36;;;;;;;7.27;2.90;;;16.10;99.90;;;;;;4990608;28;20697;-81
2021/10/27 12:50:07;;;;;;;6.97;2.60;;;16.10;99.90;;;;;;5003282;28;20203;-80
2021/10/27 12:52:37;;;;;;;8.05;2.97;;;16.10;99.90;;;;;;5001708;28;20230;-82
2021/10/27 12:55:15;;;;;;;6.72;2.92;;;16.00;99.90;;;;;;4984634;28;20609;-80
2021/10/27 12:57:52;;;;;;;8.02;3.15;;;16.10;99.90;;;;;;4983756;28;20211;-81
2021/10/27 13:00:24;;;;;;;9.57;3.20;;;16.00;99.90;;;;;;4989471;28;20218;-79
2021/10/27 13:03:22;;;;;;;8.02;3.20;;;16.10;99.90;;;;;;5003968;28;20212;-79
2021/10/27 13:05:50;;;;;;;7.90;3.83;;;16.00;99.90;;;;;;5002498;28;20203;-80
2021/10/27 13:11:10;;;;;;;11.20;4.32;;;16.00;99.90;;;;;;4984203;28;20247;-82
2021/10/27 13:13:52;;;;;;;9.10;3.47;;;16.00;99.90;;;;;;4983666;28;20211;-81
2021/10/27 13:16:42;;;;;;;9.73;4.90;;;16.00;99.90;;;;;;4983893;28;20220;-80
2021/10/27 13:19:17;;;;;;;12.13;4.45;;;16.00;99.90;;;;;;4983897;28;20302;-79
2021/10/27 13:21:49;;;;;;;11.75;4.70;;;15.90;99.90;;;;;;4983587;28;20286;-81
2021/10/27 13:29:53;;;;;;;11.10;4.87;;;16.00;99.90;;;;;;4984140;28;20207;-80
2021/10/27 13:32:21;;;;;;;10.02;4.25;;;16.00;99.90;;;;;;4983681;28;20281;-80
2021/10/27 13:34:48;;;;;;;14.03;6.10;;;16.00;99.90;;;;;;4983158;28;20211;-80
2021/10/27 13:37:17;;;;;;;8.43;4.27;;;16.00;99.90;;;;;;4983093;28;20585;-79
2021/10/27 13:39:43;;;;;;;9.23;5.57;;;16.00;99.90;;;;;;4983595;28;20204;-79
2021/10/27 13:42:16;;;;;;;10.17;5.57;;;16.00;99.90;;;;;;4982833;28;20206;-79
2021/10/27 13:44:56;;;;;;;10.00;4.70;;;16.10;99.90;;;;;;4983171;28;20204;-78
2021/10/27 13:47:30;;;;;;;11.98;5.03;;;16.10;99.90;;;;;;4983107;28;20204;-79
2021/10/27 14:06:31;;;;;;;9.27;4.93;;;16.00;99.90;;;;;;4985816;28;20241;-79
2021/10/27 14:09:00;;;;;;;10.23;5.03;;;16.00;99.90;;;;;;4986489;28;20484;-78
2021/10/27 14:11:31;;;;;;;11.13;4.77;;;16.00;99.90;;;;;;4985195;28;20243;-78
2021/10/27 14:14:06;;;;;;;9.07;4.45;;;16.00;99.90;;;;;;4985788;28;20227;-79
2021/10/27 14:19:28;;;;;;;9.80;4.57;;;15.90;99.90;;;;;;5005404;28;20182;-79
2021/10/27 15:19:50;;;;;;;15.50;4.70;;;15.30;99.90;;;;;;5024623;28;20609;-81
2021/10/27 15:22:24;;;;;;;10.13;4.67;;;15.30;99.90;;;;;;5107373;28;20192;-81
2021/10/27 15:25:18;;;;;;;8.57;4.20;;;15.30;99.90;;;;;;5073397;28;20202;-82
2021/10/27 15:28:07;;;;;;;13.87;4.53;;;15.20;99.90;;;;;;4993514;28;20514;-80
2021/10/27 15:33:38;;;;;;;10.87;4.53;;;15.20;99.90;;;;;;5061991;28;20228;-83
2021/10/27 15:36:13;;;;;;;8.13;3.97;;;15.20;99.90;;;;;;4995322;28;20231;-82
2021/10/27 15:41:31;;;;;;;10.03;4.20;;;15.10;99.90;;;;;;4985447;28;20203;-83
2021/10/27 15:52:12;;;;;;;13.10;5.47;;;15.00;99.90;;;;;;5109392;28;20214;-83
2021/10/27 15:54:39;;;;;;;11.33;4.60;;;15.00;99.90;;;;;;5013327;28;20220;-82
2021/10/27 15:57:05;;;;;;;9.43;4.60;;;15.00;99.90;;;;;;4986931;28;20204;-83
2021/10/27 15:59:33;;;;;;;9.50;4.50;;;14.90;99.90;;;;;;4987292;28;20200;-82
2021/10/27 16:01:59;;;;;;;10.33;4.03;;;14.90;99.90;;;;;;4987770;28;20200;-82
2021/10/27 16:04:26;;;;;;;9.87;4.30;;;14.90;99.90;;;;;;4987877;28;20208;-83
2021/10/27 16:06:55;;;;;;;8.93;4.33;;;14.80;99.90;;;;;;4988434;28;20797;-84
2021/10/27 16:09:27;;;;;;;11.03;4.60;;;14.80;99.90;;;;;;4987818;28;20211;-81
2021/10/27 16:11:54;;;;;;;8.40;4.10;;;14.70;99.90;;;;;;4987173;28;20238;-86
2021/10/27 16:14:23;;;;;;;9.00;3.90;;;14.70;99.90;;;;;;4988420;28;20259;-85
2021/10/27 16:16:50;;;;;;;8.03;4.33;;;14.70;99.90;;;;;;4987901;28;20572;-84
2021/10/27 16:19:17;;;;;;;8.80;4.30;;;14.70;99.90;;;;;;4988430;28;20200;-83
2021/10/27 16:21:43;;;;;;;9.90;4.70;;;14.70;99.90;;;;;;4988511;28;20208;-83
2021/10/27 16:24:10;;;;;;;12.23;4.37;;;14.70;99.90;;;;;;4989678;28;20215;-82
2021/10/27 16:26:38;;;;;;;9.57;4.70;;;14.60;99.90;;;;;;5007860;28;20242;-84
2021/10/27 16:29:05;;;;;;;8.37;3.63;;;14.60;99.90;;;;;;5008306;28;20203;-82
2021/10/27 16:31:32;;;;;;;7.77;4.90;;;14.60;99.90;;;;;;4994866;28;20231;-83